createdAt,value
2023-05-11T00:01:17.300Z,101412.28
2023-05-11T00:03:50.971Z,101401.34
2023-05-11T00:06:51.218Z,101394.78
2023-05-11T00:09:54.150Z,101406.34
2023-05-11T00:12:42.382Z,101415.25
2023-05-11T00:15:09.699Z,101407.19
2023-05-11T00:17:42.565Z,101406.81
2023-05-11T00:20:12.465Z,101421.06
2023-05-11T00:22:45.828Z,101425.41
2023-05-11T00:25:20.318Z,101437.00
2023-05-11T00:27:59.883Z,101436.34
2023-05-11T00:30:37.484Z,101443.19
2023-05-11T00:36:13.479Z,101454.31
2023-05-11T00:42:07.049Z,101454.13
2023-05-11T00:44:55.654Z,101457.47
2023-05-11T00:47:25.612Z,101452.09
2023-05-11T00:52:41.834Z,101455.06
2023-05-11T00:55:25.380Z,101457.53
2023-05-11T00:57:58.670Z,101459.41
2023-05-11T01:00:25.723Z,101458.19
2023-05-11T01:02:56.396Z,101470.59
2023-05-11T01:06:01.341Z,101466.72
2023-05-11T01:08:47.300Z,101496.09
2023-05-11T01:11:48.920Z,101518.59
2023-05-11T01:14:27.273Z,101563.25
2023-05-11T01:16:57.637Z,101627.09
2023-05-11T01:19:42.275Z,101626.78
2023-05-11T01:22:24.700Z,101642.53
2023-05-11T01:25:10.416Z,101645.22
2023-05-11T01:28:08.164Z,101649.94
2023-05-11T01:30:51.469Z,101654.09
2023-05-11T01:33:23.710Z,101663.84
2023-05-11T01:35:53.903Z,101664.69
2023-05-11T01:38:25.873Z,101665.34
2023-05-11T01:40:56.355Z,101675.88
2023-05-11T01:43:28.650Z,101670.72
2023-05-11T01:46:00.220Z,101673.19
2023-05-11T01:48:32.028Z,101676.91
2023-05-11T01:51:03.166Z,101682.75
2023-05-11T01:53:33.712Z,101685.25
2023-05-11T01:56:02.137Z,101685.25
2023-05-11T01:58:30.074Z,101684.88
2023-05-11T02:01:00.061Z,101687.41
2023-05-11T02:03:31.194Z,101692.94
2023-05-11T02:06:12.812Z,101691.13
2023-05-11T02:08:48.280Z,101685.53
2023-05-11T02:11:26.670Z,101694.81
2023-05-11T02:13:59.887Z,101698.97
2023-05-11T02:19:28.441Z,101700.00
2023-05-11T02:22:00.260Z,101708.06
2023-05-11T02:24:30.985Z,101716.97
2023-05-11T02:27:10.804Z,101711.97
2023-05-11T02:30:17.503Z,101688.31
2023-05-11T02:32:53.119Z,101689.31
2023-05-11T02:35:35.209Z,101690.19
2023-05-11T02:38:30.328Z,101691.28
2023-05-11T02:41:24.022Z,101691.84
2023-05-11T02:44:00.418Z,101689.41
2023-05-11T02:49:33.084Z,101686.06
2023-05-11T02:52:06.764Z,101689.56
2023-05-11T02:54:42.122Z,101687.56
2023-05-11T02:57:20.579Z,101692.25
2023-05-11T03:02:49.101Z,101682.84
2023-05-11T03:05:36.220Z,101691.59
2023-05-11T03:08:12.425Z,101687.81
2023-05-11T03:13:58.679Z,101697.41
2023-05-11T03:16:40.223Z,101693.69
2023-05-11T03:19:23.852Z,101692.53
2023-05-11T03:22:01.848Z,101693.34
2023-05-11T03:24:42.341Z,101695.38
2023-05-11T03:27:59.413Z,101696.59
2023-05-11T03:30:14.552Z,101694.25
2023-05-11T03:32:50.963Z,101693.69
2023-05-11T03:35:33.652Z,101695.94
2023-05-11T03:38:16.398Z,101695.06
2023-05-11T03:40:59.101Z,101697.41
2023-05-11T03:44:02.546Z,101698.63
2023-05-11T03:46:53.297Z,101696.75
2023-05-11T03:49:21.127Z,101697.47
2023-05-11T03:52:13.158Z,101694.13
2023-05-11T03:57:57.407Z,101684.97
2023-05-11T04:00:49.022Z,101684.81
2023-05-11T04:06:33.255Z,101684.31
2023-05-11T04:10:00.368Z,101685.19
2023-05-11T04:12:42.499Z,101690.53
2023-05-11T04:15:17.469Z,101689.25
2023-05-11T04:18:24.875Z,101694.91
2023-05-11T04:21:11.003Z,101693.03
2023-05-11T04:24:19.386Z,101690.91
2023-05-11T04:27:02.110Z,101700.34
2023-05-11T04:29:35.180Z,101697.28
2023-05-11T04:32:22.266Z,101694.59
2023-05-11T04:34:49.323Z,101693.59
2023-05-11T04:37:25.677Z,101693.59
2023-05-11T04:40:09.220Z,101696.44
2023-05-11T04:42:44.443Z,101695.31
2023-05-11T04:45:17.336Z,101698.66
2023-05-11T04:47:44.151Z,101701.34
2023-05-11T04:50:11.656Z,101697.50
2023-05-11T04:52:38.381Z,101701.69
2023-05-11T04:55:10.033Z,101699.53
2023-05-11T04:57:40.737Z,101704.69
2023-05-11T05:00:20.585Z,101707.06
2023-05-11T05:02:48.267Z,101707.06
2023-05-11T05:05:20.601Z,101713.25
2023-05-11T05:07:49.744Z,101719.13
2023-05-11T05:10:33.889Z,101714.22
2023-05-11T05:13:16.887Z,101716.16
2023-05-11T05:16:13.667Z,101715.13
2023-05-11T05:18:50.258Z,101727.00
2023-05-11T05:21:27.776Z,101725.50
2023-05-11T05:24:08.118Z,101723.53
2023-05-11T05:26:46.966Z,101728.38
2023-05-11T05:29:23.371Z,101728.72
2023-05-11T05:32:09.962Z,101729.38
2023-05-11T05:34:39.281Z,101728.84
2023-05-11T05:37:29.231Z,101729.88
2023-05-11T05:40:00.054Z,101735.19
2023-05-11T05:43:08.365Z,101749.28
2023-05-11T05:45:41.956Z,101741.56
2023-05-11T05:48:16.204Z,101752.56
2023-05-11T05:51:02.645Z,101757.41
2023-05-11T05:53:59.595Z,101762.53
2023-05-11T05:56:32.529Z,101768.81
2023-05-11T05:59:06.829Z,101771.63
2023-05-11T06:02:02.918Z,101766.97
2023-05-11T06:07:25.572Z,101789.91
2023-05-11T06:10:08.006Z,101783.63
2023-05-11T06:13:00.453Z,101790.44
2023-05-11T06:15:28.468Z,101803.81
2023-05-11T06:18:12.799Z,101821.19
2023-05-11T06:21:01.179Z,101820.47
2023-05-11T06:23:30.384Z,101823.81
2023-05-11T06:26:11.863Z,101818.97
2023-05-11T06:29:07.854Z,101827.81
2023-05-11T06:32:09.657Z,101816.28
2023-05-11T06:34:45.242Z,101832.34
2023-05-11T06:37:48.363Z,101879.09
2023-05-11T06:40:40.429Z,101879.78
2023-05-11T06:43:13.785Z,101884.09
2023-05-11T06:46:02.057Z,101887.44
2023-05-11T06:48:33.365Z,101884.94
2023-05-11T06:51:00.279Z,101888.75
2023-05-11T06:53:29.523Z,101877.41
2023-05-11T06:55:58.797Z,101882.91
2023-05-11T06:58:27.379Z,101882.56
2023-05-11T07:00:56.689Z,101882.41
2023-05-11T07:03:24.246Z,101879.78
2023-05-11T07:05:54.809Z,101876.22
2023-05-11T07:08:22.690Z,101871.13
2023-05-11T07:10:49.686Z,101873.25
2023-05-11T07:13:16.791Z,101872.75
2023-05-11T07:15:44.149Z,101870.13
2023-05-11T07:18:13.199Z,101874.34
2023-05-11T07:20:41.202Z,101867.13
2023-05-11T07:23:08.517Z,101871.66
2023-05-11T07:25:35.762Z,101861.94
2023-05-11T07:28:03.600Z,101866.94
2023-05-11T07:30:31.119Z,101858.47
2023-05-11T07:32:57.923Z,101858.59
2023-05-11T07:35:24.812Z,101854.41
2023-05-11T07:37:52.827Z,101859.72
2023-05-11T07:40:20.377Z,101850.56
2023-05-11T07:42:56.665Z,101845.50
2023-05-11T07:45:24.019Z,101844.31
2023-05-11T07:47:53.739Z,101843.66
2023-05-11T07:50:28.520Z,101839.81
2023-05-11T07:52:55.358Z,101841.78
2023-05-11T07:55:25.715Z,101839.88
2023-05-11T07:57:55.835Z,101835.91
2023-05-11T08:00:22.952Z,101839.06
2023-05-11T08:02:57.480Z,101843.25
2023-05-11T08:05:28.129Z,101829.44
2023-05-11T08:08:16.152Z,101822.66
2023-05-11T08:13:28.987Z,101832.69
2023-05-11T08:15:58.297Z,101831.56
2023-05-11T08:18:32.470Z,101810.34
2023-05-11T08:20:59.202Z,101843.75
2023-05-11T08:23:25.849Z,101838.28
2023-05-11T08:25:57.899Z,101836.13
2023-05-11T08:28:39.949Z,101833.81
2023-05-11T08:31:15.162Z,101830.59
2023-05-11T08:33:45.693Z,101824.84
2023-05-11T08:36:15.491Z,101827.97
2023-05-11T08:38:44.373Z,101828.09
2023-05-11T08:41:17.937Z,101828.91
2023-05-11T08:43:47.437Z,101830.88
2023-05-11T08:46:18.444Z,101822.16
2023-05-11T08:48:50.554Z,101816.41
2023-05-11T08:51:17.456Z,101818.16
2023-05-11T08:53:47.485Z,101831.50
2023-05-11T08:56:18.066Z,101825.63
2023-05-11T08:58:45.920Z,101841.13
2023-05-11T09:01:18.568Z,101849.56
2023-05-11T09:04:03.232Z,101839.13
2023-05-11T09:07:01.762Z,101838.78
2023-05-11T09:09:40.814Z,101834.53
2023-05-11T09:12:10.291Z,101830.81
2023-05-11T09:14:44.043Z,101827.28
2023-05-11T09:17:13.601Z,101837.69
2023-05-11T09:20:00.623Z,101829.91
2023-05-11T09:22:30.857Z,101833.13
2023-05-11T09:25:22.963Z,101826.72
2023-05-11T09:28:25.201Z,101817.94
2023-05-11T09:30:41.910Z,101816.06
2023-05-11T09:33:18.906Z,101811.06
2023-05-11T09:36:17.391Z,101821.44
2023-05-11T09:38:47.500Z,101824.13
2023-05-11T09:41:20.558Z,101822.97
2023-05-11T09:43:53.335Z,101819.78
2023-05-11T09:46:23.402Z,101813.50
2023-05-11T09:49:02.998Z,101806.47
2023-05-11T09:51:36.642Z,101814.41
2023-05-11T09:54:29.905Z,101815.22
2023-05-11T09:57:04.824Z,101798.97
2023-05-11T10:00:24.643Z,101794.47
2023-05-11T10:03:06.200Z,101784.53
2023-05-11T10:05:44.644Z,101769.94
2023-05-11T10:08:14.513Z,101776.03
2023-05-11T10:10:49.096Z,101783.38
2023-05-11T10:13:20.215Z,101770.31
2023-05-11T10:15:57.320Z,101767.47
2023-05-11T10:18:32.542Z,101773.78
2023-05-11T10:21:10.921Z,101772.06
2023-05-11T10:23:45.314Z,101757.28
2023-05-11T10:26:18.330Z,101754.44
2023-05-11T10:29:01.712Z,101738.53
2023-05-11T10:31:31.903Z,101733.34
2023-05-11T10:34:04.046Z,101720.19
2023-05-11T10:36:31.066Z,101715.13
2023-05-11T10:39:27.970Z,101709.25
2023-05-11T10:42:26.998Z,101710.53
2023-05-11T10:45:40.920Z,101717.03
2023-05-11T10:48:12.564Z,101701.75
2023-05-11T10:51:05.642Z,101706.34
2023-05-11T10:53:48.374Z,101715.16
2023-05-11T10:56:26.917Z,101715.41
2023-05-11T10:59:12.958Z,101697.84
2023-05-11T11:01:44.102Z,101696.94
2023-05-11T11:04:13.645Z,101693.38
2023-05-11T11:06:42.882Z,101692.41
2023-05-11T11:09:16.244Z,101694.75
2023-05-11T11:11:48.191Z,101687.91
2023-05-11T11:14:17.630Z,101685.63
2023-05-11T11:17:16.310Z,101679.34
2023-05-11T11:19:43.824Z,101674.16
2023-05-11T11:22:35.580Z,101666.75
2023-05-11T11:25:07.154Z,101674.66
2023-05-11T11:27:39.977Z,101668.09
2023-05-11T11:30:15.738Z,101684.66
2023-05-11T11:32:50.005Z,101680.50
2023-05-11T11:35:42.605Z,101682.38
2023-05-11T11:38:30.055Z,101669.66
2023-05-11T11:40:59.810Z,101668.00
2023-05-11T11:43:45.085Z,101663.41
2023-05-11T11:46:25.771Z,101657.41
2023-05-11T11:48:54.861Z,101647.22
2023-05-11T11:51:40.794Z,101640.31
2023-05-11T11:54:08.096Z,101636.56
2023-05-11T11:56:39.213Z,101639.53
2023-05-11T11:59:10.197Z,101638.28
2023-05-11T12:01:38.160Z,101637.03
2023-05-11T12:04:05.194Z,101631.84
2023-05-11T12:06:37.501Z,101630.78
2023-05-11T12:09:05.323Z,101620.34
2023-05-11T12:11:34.664Z,101614.72
2023-05-11T12:14:05.881Z,101612.28
2023-05-11T12:16:33.244Z,101611.88
2023-05-11T12:19:02.289Z,101621.44
2023-05-11T12:21:36.265Z,101611.69
2023-05-11T12:24:04.950Z,101613.94
2023-05-11T12:26:33.221Z,101605.41
2023-05-11T12:32:09.670Z,101610.03
2023-05-11T12:40:13.002Z,101599.44
2023-05-11T12:43:07.269Z,101590.28
2023-05-11T12:45:40.951Z,101593.38
2023-05-11T12:48:12.556Z,101596.84
2023-05-11T12:51:53.543Z,101595.97
2023-05-11T12:55:13.600Z,101586.25
2023-05-11T12:58:59.909Z,101579.41
2023-05-11T13:01:42.406Z,101568.47
2023-05-11T13:09:31.344Z,101544.97
2023-05-11T13:19:44.911Z,101556.97
2023-05-11T13:22:13.949Z,101551.28
2023-05-11T13:25:41.503Z,101550.91
2023-05-11T13:29:10.809Z,101538.06
2023-05-11T13:32:18.531Z,101541.00
2023-05-11T13:35:55.508Z,101534.28
2023-05-11T13:38:55.751Z,101519.19
2023-05-11T13:42:22.012Z,101507.56
2023-05-11T13:47:59.597Z,101500.13
2023-05-11T13:50:36.647Z,101489.72
2023-05-11T13:53:30.812Z,101491.38
2023-05-11T14:00:30.372Z,101471.84
2023-05-11T14:02:58.495Z,101457.88
2023-05-11T14:05:50.964Z,101469.13
2023-05-11T14:08:37.890Z,101465.84
2023-05-11T14:11:04.825Z,101461.47
2023-05-11T14:13:31.666Z,101456.28
2023-05-11T14:15:58.568Z,101453.16
2023-05-11T14:18:26.717Z,101457.09
2023-05-11T14:20:54.685Z,101466.44
2023-05-11T14:23:21.663Z,101451.69
2023-05-11T14:25:48.378Z,101450.22
2023-05-11T14:28:15.065Z,101449.41
2023-05-11T14:30:41.821Z,101435.03
2023-05-11T14:33:08.610Z,101429.47
2023-05-11T14:35:39.748Z,101429.22
2023-05-11T14:38:07.004Z,101435.50
2023-05-11T14:40:35.836Z,101441.75
2023-05-11T14:43:06.172Z,101437.16
2023-05-11T14:45:33.259Z,101432.56
2023-05-11T14:48:00.874Z,101426.75
2023-05-11T14:50:28.551Z,101427.78
2023-05-11T14:52:55.667Z,101416.97
2023-05-11T14:55:24.649Z,101418.66
2023-05-11T14:57:51.733Z,101424.88
2023-05-11T15:00:18.925Z,101417.19
2023-05-11T15:02:45.651Z,101414.06
2023-05-11T15:05:12.300Z,101408.22
2023-05-11T15:07:41.593Z,101404.03
2023-05-11T15:10:08.526Z,101400.91
2023-05-11T15:12:35.879Z,101400.53
2023-05-11T15:15:03.801Z,101390.75
2023-05-11T15:17:30.729Z,101386.34
2023-05-11T15:20:01.732Z,101377.59
2023-05-11T15:22:31.510Z,101381.75
2023-05-11T15:24:59.789Z,101375.94
2023-05-11T15:27:29.194Z,101376.09
2023-05-11T15:30:01.965Z,101369.78
2023-05-11T15:32:32.239Z,101366.78
2023-05-11T15:35:17.702Z,101365.06
2023-05-11T15:41:19.362Z,101367.34
2023-05-11T15:48:00.277Z,101367.94
2023-05-11T15:53:51.984Z,101374.56
2023-05-11T15:57:15.473Z,101372.91
2023-05-11T16:00:44.735Z,101380.97
2023-05-11T16:03:19.077Z,101378.47
2023-05-11T16:10:17.830Z,101382.81
2023-05-11T16:14:02.984Z,101381.16
2023-05-11T16:16:30.315Z,101384.72
2023-05-11T16:19:02.931Z,101386.19
2023-05-11T16:21:36.034Z,101389.88
2023-05-11T16:24:02.872Z,101388.66
2023-05-11T16:26:30.967Z,101389.44
2023-05-11T16:28:57.708Z,101400.47
2023-05-11T16:31:24.498Z,101404.81
2023-05-11T16:33:51.470Z,101402.50
2023-05-11T16:36:18.385Z,101402.28
2023-05-11T16:38:45.427Z,101400.16
2023-05-11T16:41:12.277Z,101401.44
2023-05-11T16:43:42.933Z,101408.28
2023-05-11T16:46:09.806Z,101414.25
2023-05-11T16:48:36.677Z,101413.22
2023-05-11T16:51:03.778Z,101410.13
2023-05-11T16:53:41.806Z,101412.41
2023-05-11T16:56:08.852Z,101414.88
2023-05-11T16:58:35.856Z,101416.56
2023-05-11T17:01:02.878Z,101422.16
2023-05-11T17:03:29.822Z,101435.25
2023-05-11T17:06:01.924Z,101445.16
2023-05-11T17:08:32.250Z,101448.94
2023-05-11T17:10:59.594Z,101449.91
2023-05-11T17:13:28.954Z,101450.59
2023-05-11T17:15:57.628Z,101447.84
2023-05-11T17:18:26.956Z,101453.38
2023-05-11T17:20:57.210Z,101448.97
2023-05-11T17:23:25.154Z,101458.06
2023-05-11T17:25:53.711Z,101461.59
2023-05-11T17:28:22.534Z,101459.53
2023-05-11T17:30:56.072Z,101474.91
2023-05-11T17:33:26.529Z,101473.19
2023-05-11T17:36:23.329Z,101472.53
2023-05-11T17:39:52.461Z,101481.28
2023-05-11T17:45:39.584Z,101483.06
2023-05-11T17:54:44.136Z,101508.31
2023-05-11T17:57:26.057Z,101515.56
2023-05-11T18:00:00.337Z,101521.97
2023-05-11T18:02:53.468Z,101529.44
2023-05-11T18:05:40.379Z,101534.41
2023-05-11T18:08:14.300Z,101535.22
2023-05-11T18:13:39.667Z,101545.34
2023-05-11T18:16:10.204Z,101544.53
2023-05-11T18:19:26.034Z,101551.84
2023-05-11T18:21:53.147Z,101560.81
2023-05-11T18:24:36.056Z,101563.41
2023-05-11T18:27:17.120Z,101562.13
2023-05-11T18:32:48.970Z,101568.16
2023-05-11T18:35:27.940Z,101571.50
2023-05-11T18:38:16.605Z,101585.25
2023-05-11T18:41:21.268Z,101586.44
2023-05-11T18:44:09.924Z,101587.00
2023-05-11T18:46:55.295Z,101598.16
2023-05-11T18:49:25.908Z,101599.44
2023-05-11T18:52:23.826Z,101608.47
2023-05-11T18:55:19.478Z,101609.88
2023-05-11T18:58:03.564Z,101620.84
2023-05-11T19:00:45.892Z,101628.34
2023-05-11T19:06:18.309Z,101627.25
2023-05-11T19:08:59.772Z,101642.56
2023-05-11T19:11:43.750Z,101644.22
2023-05-11T19:14:31.727Z,101649.63
2023-05-11T19:17:17.088Z,101658.44
2023-05-11T19:23:04.323Z,101666.50
2023-05-11T19:26:35.211Z,101672.06
2023-05-11T19:29:30.711Z,101676.63
2023-05-11T19:33:13.043Z,101683.03
2023-05-11T19:35:51.570Z,101689.06
2023-05-11T20:25:29.480Z,101762.66
2023-05-11T20:54:59.264Z,101782.78
2023-05-11T20:57:54.524Z,101787.16
2023-05-11T21:00:25.925Z,101786.56
2023-05-11T21:03:05.788Z,101783.44
2023-05-11T21:08:44.014Z,101793.34
2023-05-11T21:11:36.712Z,101797.28
2023-05-11T21:14:07.499Z,101796.41
2023-05-11T21:20:01.425Z,101806.81
2023-05-11T21:23:01.362Z,101809.22
2023-05-11T21:26:06.492Z,101811.75
2023-05-11T21:28:34.656Z,101814.44
2023-05-11T21:31:10.388Z,101814.44
2023-05-11T21:33:37.476Z,101822.31
2023-05-11T21:36:05.795Z,101823.34
2023-05-11T21:38:32.651Z,101821.50
2023-05-11T21:40:59.890Z,101827.25
2023-05-11T21:43:27.441Z,101824.94
2023-05-11T21:45:55.390Z,101839.41
2023-05-11T21:48:30.486Z,101829.66
2023-05-11T21:50:57.547Z,101837.06
2023-05-11T21:53:26.825Z,101841.59
2023-05-11T21:55:53.678Z,101843.00
2023-05-11T21:58:21.214Z,101838.63
2023-05-11T22:00:50.177Z,101841.31
2023-05-11T22:03:17.317Z,101852.09
2023-05-11T22:05:44.416Z,101854.97
2023-05-11T22:08:15.378Z,101857.84
2023-05-11T22:10:43.405Z,101856.00
2023-05-11T22:13:10.867Z,101867.56
2023-05-11T22:15:37.803Z,101873.81
2023-05-11T22:18:07.329Z,101874.19
2023-05-11T22:20:42.160Z,101873.16
2023-05-11T22:23:08.944Z,101880.22
2023-05-11T22:25:38.946Z,101878.34
2023-05-11T22:28:10.504Z,101880.88
2023-05-11T22:30:46.928Z,101884.56
2023-05-11T22:33:19.115Z,101877.53
2023-05-11T22:35:48.858Z,101885.59
2023-05-11T22:38:15.520Z,101897.00
2023-05-11T22:40:58.476Z,101892.44
2023-05-11T22:43:32.553Z,101889.97
2023-05-11T22:46:04.186Z,101906.56
2023-05-11T22:48:33.311Z,101918.84
2023-05-11T22:51:00.134Z,101920.13
2023-05-11T22:53:36.498Z,101921.97
2023-05-11T22:56:09.724Z,101918.47
2023-05-11T22:58:37.415Z,101923.00
2023-05-11T23:01:07.833Z,101927.72
2023-05-11T23:03:34.806Z,101935.13
2023-05-11T23:06:04.805Z,101929.31
2023-05-11T23:08:31.858Z,101929.16
2023-05-11T23:10:59.035Z,101935.38
2023-05-11T23:13:26.561Z,101933.53
2023-05-11T23:15:53.963Z,101939.56
2023-05-11T23:18:21.296Z,101934.19
2023-05-11T23:20:48.623Z,101936.72
2023-05-11T23:23:16.246Z,101936.88
2023-05-11T23:25:53.180Z,101932.69
2023-05-11T23:28:26.736Z,101928.03
2023-05-11T23:31:04.390Z,101929.03
2023-05-11T23:33:34.073Z,101920.88
2023-05-11T23:36:20.644Z,101919.72
2023-05-11T23:38:53.888Z,101924.81
2023-05-11T23:41:24.471Z,101913.13
2023-05-11T23:44:05.255Z,101912.19
2023-05-11T23:46:40.078Z,101906.97
2023-05-11T23:49:10.004Z,101906.63
2023-05-11T23:51:52.823Z,101909.81
2023-05-11T23:54:25.916Z,101919.41
2023-05-11T23:57:11.828Z,101913.94
2023-05-11T23:59:47.069Z,101905.25
